Time;durP1;ratioP1;P1;durP2;ratioP2;P2;SDS_P1;SDS_P2;PMS_P1;PMS_P2;Temp;Humidity;BMP_temperature;BMP_pressure;BME280_temperature;BME280_humidity;BME280_pressure;Samples;Min_cycle;Max_cycle;Signal;HPM_P1;HPM_P2
2022/04/19 00:01:04;;;;;;;5.97;5.47;;;6.00;99.90;;;;;;5093960;28;20438;-64
2022/04/19 00:03:30;;;;;;;5.60;5.00;;;5.90;99.90;;;;;;5093948;28;20185;-64
2022/04/19 00:05:56;;;;;;;5.40;4.80;;;5.90;99.90;;;;;;5093876;28;20910;-65
2022/04/19 00:08:22;;;;;;;5.43;5.00;;;5.90;99.90;;;;;;5093639;28;20573;-68
2022/04/19 00:10:47;;;;;;;6.17;4.53;;;5.90;99.90;;;;;;5091586;28;20184;-65
2022/04/19 00:13:17;;;;;;;5.60;4.77;;;5.90;99.90;;;;;;5092711;28;20284;-63
2022/04/19 00:15:44;;;;;;;6.83;4.83;;;5.80;99.90;;;;;;5093712;28;20194;-67
2022/04/19 00:18:11;;;;;;;5.53;5.10;;;5.80;99.90;;;;;;5093752;28;20399;-64
2022/04/19 00:20:42;;;;;;;7.20;6.10;;;5.80;99.90;;;;;;5092731;28;20414;-63
2022/04/19 00:23:15;;;;;;;4.90;4.33;;;5.80;99.90;;;;;;5093550;28;20423;-62
2022/04/19 00:25:46;;;;;;;5.53;4.93;;;5.80;99.90;;;;;;5093255;28;20404;-64
2022/04/19 00:28:12;;;;;;;5.13;4.67;;;5.80;99.90;;;;;;5093549;28;20404;-61
2022/04/19 00:30:38;;;;;;;6.03;4.47;;;5.70;99.90;;;;;;5092569;28;20412;-64
2022/04/19 00:33:05;;;;;;;4.67;4.27;;;5.70;99.90;;;;;;5093413;28;20782;-64
2022/04/19 00:35:31;;;;;;;5.93;4.60;;;5.70;99.90;;;;;;5093574;28;20192;-61
2022/04/19 00:37:56;;;;;;;6.00;4.57;;;5.70;99.90;;;;;;5093386;28;20387;-62
2022/04/19 00:40:22;;;;;;;5.37;4.20;;;5.60;99.90;;;;;;5092548;28;20762;-64
2022/04/19 00:42:49;;;;;;;5.80;5.27;;;5.60;99.90;;;;;;5093144;28;20224;-64
2022/04/19 00:45:14;;;;;;;4.90;4.50;;;5.60;99.90;;;;;;5092710;28;20161;-63
2022/04/19 00:47:40;;;;;;;6.20;5.60;;;5.60;99.90;;;;;;5093355;28;20410;-61
2022/04/19 00:50:07;;;;;;;6.00;4.23;;;5.60;99.90;;;;;;5091313;28;20200;-66
2022/04/19 00:52:37;;;;;;;6.23;5.27;;;5.50;99.90;;;;;;5093145;28;20671;-63
2022/04/19 00:55:04;;;;;;;4.97;4.57;;;5.50;99.90;;;;;;5093087;28;20447;-66
2022/04/19 00:57:30;;;;;;;5.27;4.77;;;5.50;99.90;;;;;;5093183;28;20391;-64
2022/04/19 00:59:57;;;;;;;5.40;4.97;;;5.50;99.90;;;;;;5091883;28;20396;-63
2022/04/19 01:02:24;;;;;;;5.00;4.70;;;5.50;99.90;;;;;;5092799;28;20808;-68
2022/04/19 01:04:49;;;;;;;6.00;4.77;;;5.40;99.90;;;;;;5092978;28;20420;-66
2022/04/19 01:07:17;;;;;;;5.70;5.13;;;5.40;99.90;;;;;;5091443;28;20414;-65
2022/04/19 01:09:43;;;;;;;4.83;4.47;;;5.40;99.90;;;;;;5092168;28;20902;-66
2022/04/19 01:14:55;;;;;;;4.93;4.30;;;5.30;99.90;;;;;;5093191;28;20180;-67
2022/04/19 01:17:22;;;;;;;4.80;4.43;;;5.30;99.90;;;;;;5091669;28;20420;-63
2022/04/19 01:19:48;;;;;;;4.60;4.20;;;5.30;99.90;;;;;;5091375;28;20845;-64
2022/04/19 01:22:14;;;;;;;5.10;4.53;;;5.30;99.90;;;;;;5092872;28;20419;-63
2022/04/19 01:24:43;;;;;;;7.10;4.33;;;5.30;99.90;;;;;;5091774;28;20476;-63
2022/04/19 01:27:09;;;;;;;5.23;4.80;;;5.20;99.90;;;;;;5092778;28;20173;-65
2022/04/19 01:29:36;;;;;;;4.10;3.80;;;5.20;99.90;;;;;;5092064;28;20902;-63
2022/04/19 01:32:05;;;;;;;6.67;5.00;;;5.20;99.90;;;;;;5092765;28;20405;-63
2022/04/19 01:34:31;;;;;;;5.70;4.93;;;5.20;99.90;;;;;;5092541;28;20400;-66
2022/04/19 01:36:57;;;;;;;5.30;4.80;;;5.20;99.90;;;;;;5092288;28;20558;-66
2022/04/19 01:42:08;;;;;;;4.63;4.30;;;5.10;99.90;;;;;;5092678;28;20460;-63
2022/04/19 01:44:34;;;;;;;4.67;4.27;;;5.10;99.90;;;;;;5092620;28;20400;-63
2022/04/19 01:47:02;;;;;;;5.90;5.13;;;5.10;99.90;;;;;;5092628;28;20404;-66
2022/04/19 01:49:27;;;;;;;5.00;4.60;;;5.00;99.90;;;;;;5091669;28;20894;-66
2022/04/19 01:51:53;;;;;;;5.17;4.60;;;5.10;99.90;;;;;;5092555;28;20430;-65
2022/04/19 01:54:19;;;;;;;8.80;5.00;;;5.00;99.90;;;;;;5092115;28;20249;-63
2022/04/19 01:56:44;;;;;;;5.10;4.60;;;5.00;99.90;;;;;;5092472;28;20278;-66
2022/04/19 01:59:11;;;;;;;5.23;4.37;;;4.90;99.90;;;;;;5090346;28;20168;-64
2022/04/19 02:01:37;;;;;;;8.10;5.37;;;4.80;99.90;;;;;;5092520;28;20594;-63
2022/04/19 02:04:03;;;;;;;5.90;4.10;;;4.70;99.90;;;;;;5092392;28;20403;-63
2022/04/19 02:06:30;;;;;;;4.77;4.37;;;4.70;99.90;;;;;;5092524;28;20181;-64
2022/04/19 02:08:56;;;;;;;5.07;4.57;;;4.70;99.90;;;;;;5091633;28;20407;-62
2022/04/19 02:11:24;;;;;;;5.13;4.63;;;4.60;99.90;;;;;;5091287;28;21012;-66
2022/04/19 02:13:51;;;;;;;4.80;4.40;;;4.70;99.90;;;;;;5092008;28;20897;-66
2022/04/19 02:16:17;;;;;;;4.73;4.33;;;4.70;99.90;;;;;;5092127;28;20858;-65
2022/04/19 02:18:43;;;;;;;4.50;3.87;;;4.70;99.90;;;;;;5091964;28;20474;-63
2022/04/19 02:21:09;;;;;;;8.07;4.90;;;4.70;99.90;;;;;;5096014;28;20490;-63
2022/04/19 02:23:35;;;;;;;4.40;4.00;;;4.60;99.90;;;;;;5094816;28;20831;-66
2022/04/19 02:26:02;;;;;;;4.43;4.03;;;4.60;99.90;;;;;;5095886;28;20663;-63
2022/04/19 02:28:27;;;;;;;4.60;4.20;;;4.70;99.90;;;;;;5095683;28;20404;-65
2022/04/19 02:30:53;;;;;;;8.13;5.43;;;4.60;99.90;;;;;;5095310;28;20415;-65
2022/04/19 02:33:18;;;;;;;4.53;4.13;;;4.60;99.90;;;;;;5093617;28;20828;-66
2022/04/19 02:35:44;;;;;;;4.90;4.40;;;4.60;99.90;;;;;;5094194;28;20204;-66
2022/04/19 02:38:10;;;;;;;4.87;4.30;;;4.60;99.90;;;;;;5094425;28;20196;-66
2022/04/19 02:40:36;;;;;;;4.43;4.13;;;4.50;99.90;;;;;;5094739;28;20881;-63
2022/04/19 02:43:01;;;;;;;5.10;4.70;;;4.50;99.90;;;;;;5095575;28;20194;-65
2022/04/19 02:45:27;;;;;;;7.70;4.87;;;4.30;99.90;;;;;;5095488;28;20180;-65
2022/04/19 02:48:04;;;;;;;5.10;4.60;;;4.20;99.90;;;;;;5095314;28;20176;-66
2022/04/19 02:50:39;;;;;;;5.40;4.90;;;4.20;99.90;;;;;;5094632;28;20177;-64
2022/04/19 02:53:04;;;;;;;6.80;4.03;;;4.20;99.90;;;;;;5093788;28;20439;-64
2022/04/19 02:55:30;;;;;;;5.80;4.97;;;4.30;99.90;;;;;;5095321;28;20500;-63
2022/04/19 02:57:56;;;;;;;4.17;3.77;;;4.30;99.90;;;;;;5094166;28;20410;-63
2022/04/19 03:00:23;;;;;;;4.90;4.43;;;4.30;99.90;;;;;;5094366;28;20174;-65
2022/04/19 03:02:49;;;;;;;8.43;4.67;;;4.30;99.90;;;;;;5095149;28;20424;-65
2022/04/19 03:05:18;;;;;;;5.33;4.77;;;4.30;99.90;;;;;;5095012;28;20798;-63
2022/04/19 03:07:44;;;;;;;5.23;4.87;;;4.30;99.90;;;;;;5093815;28;20930;-66
2022/04/19 03:10:09;;;;;;;5.33;4.73;;;4.30;99.90;;;;;;5094182;28;20446;-63
2022/04/19 03:12:35;;;;;;;5.23;4.73;;;4.30;99.90;;;;;;5093006;28;20192;-63
2022/04/19 03:15:01;;;;;;;11.33;5.60;;;4.30;99.90;;;;;;5094908;28;20176;-64
2022/04/19 03:17:27;;;;;;;8.70;4.30;;;4.30;99.90;;;;;;5094933;28;20723;-64
2022/04/19 03:19:53;;;;;;;6.80;4.37;;;4.30;99.90;;;;;;5093943;28;20169;-63
2022/04/19 03:22:19;;;;;;;7.80;4.87;;;4.20;99.90;;;;;;5094647;28;20914;-64
2022/04/19 03:27:43;;;;;;;8.20;4.73;;;4.10;99.90;;;;;;5094997;28;20540;-67
2022/04/19 03:30:14;;;;;;;5.23;4.80;;;3.90;99.90;;;;;;5091935;28;20473;-67
2022/04/19 03:32:43;;;;;;;6.67;5.00;;;3.80;99.90;;;;;;5094507;28;20425;-63
2022/04/19 03:35:10;;;;;;;6.43;4.60;;;3.80;99.90;;;;;;5093207;28;20437;-66
2022/04/19 03:37:36;;;;;;;5.10;4.60;;;3.80;99.90;;;;;;5094527;28;20397;-63
2022/04/19 03:40:02;;;;;;;5.20;4.13;;;3.80;99.90;;;;;;5093535;28;20396;-63
2022/04/19 03:42:27;;;;;;;5.73;4.97;;;3.80;99.90;;;;;;5094169;28;20506;-66
2022/04/19 03:44:54;;;;;;;7.23;4.90;;;3.80;99.90;;;;;;5093417;28;20402;-65
2022/04/19 03:47:20;;;;;;;5.77;4.80;;;3.90;99.90;;;;;;5093882;28;20161;-63
2022/04/19 03:49:46;;;;;;;5.77;5.20;;;3.90;99.90;;;;;;5093105;28;20398;-66
2022/04/19 03:52:12;;;;;;;8.20;4.80;;;3.90;99.90;;;;;;5092889;28;21059;-66
2022/04/19 03:54:37;;;;;;;6.27;4.67;;;3.90;99.90;;;;;;5094100;28;20417;-66
2022/04/19 03:57:04;;;;;;;7.70;4.87;;;3.90;99.90;;;;;;5094191;28;20188;-64
2022/04/19 03:59:31;;;;;;;5.30;4.80;;;3.90;99.90;;;;;;5093316;28;20159;-65
2022/04/19 04:01:57;;;;;;;5.53;4.53;;;3.90;99.90;;;;;;5092692;28;20791;-66
2022/04/19 04:04:23;;;;;;;9.10;5.30;;;3.90;99.90;;;;;;5093907;28;20423;-66
2022/04/19 04:06:49;;;;;;;6.03;5.33;;;3.90;99.90;;;;;;5093373;28;20402;-65
2022/04/19 04:09:14;;;;;;;7.37;5.20;;;3.80;99.90;;;;;;5092884;28;20187;-65
2022/04/19 04:11:40;;;;;;;5.17;4.70;;;3.80;99.90;;;;;;5093810;28;20236;-63
2022/04/19 04:14:05;;;;;;;5.63;4.87;;;3.80;99.90;;;;;;5093880;28;20164;-66
2022/04/19 04:16:31;;;;;;;8.83;4.20;;;3.70;99.90;;;;;;5092028;28;20568;-66
2022/04/19 04:18:57;;;;;;;6.40;5.80;;;3.70;99.90;;;;;;5091637;28;20177;-63
2022/04/19 04:21:22;;;;;;;5.17;4.77;;;3.70;99.90;;;;;;5093424;28;20168;-65
2022/04/19 04:23:48;;;;;;;4.73;4.43;;;3.80;99.90;;;;;;5093078;28;20171;-65
2022/04/19 04:26:13;;;;;;;5.73;5.13;;;3.80;99.90;;;;;;5093703;28;20184;-65
2022/04/19 04:28:39;;;;;;;7.00;4.53;;;3.80;99.90;;;;;;5092626;28;20247;-66
2022/04/19 04:31:06;;;;;;;6.33;5.13;;;3.80;99.90;;;;;;5093531;28;20192;-64
2022/04/19 04:33:31;;;;;;;7.83;4.93;;;3.90;99.90;;;;;;5093564;28;20186;-65
2022/04/19 04:35:58;;;;;;;6.37;5.47;;;3.90;99.90;;;;;;5093376;28;20442;-66
2022/04/19 04:38:23;;;;;;;6.17;4.70;;;3.90;99.90;;;;;;5093246;28;20504;-66
2022/04/19 04:40:49;;;;;;;7.53;3.87;;;3.90;99.90;;;;;;5092018;28;20971;-65
2022/04/19 04:43:14;;;;;;;5.27;4.73;;;4.00;99.90;;;;;;5092807;28;20664;-66
2022/04/19 04:45:40;;;;;;;5.23;4.73;;;3.90;99.90;;;;;;5093472;28;20179;-64
2022/04/19 04:50:50;;;;;;;7.50;5.27;;;3.90;99.90;;;;;;5092735;28;20229;-63
2022/04/19 04:53:16;;;;;;;5.10;4.70;;;4.00;99.90;;;;;;5093098;28;20427;-63
2022/04/19 04:55:41;;;;;;;5.20;4.63;;;3.90;99.90;;;;;;5093196;28;20658;-66
2022/04/19 04:58:09;;;;;;;6.50;4.70;;;3.90;99.90;;;;;;5093161;28;20168;-63
2022/04/19 05:00:35;;;;;;;11.03;5.00;;;4.00;99.90;;;;;;5091592;28;20219;-67
2022/04/19 05:03:00;;;;;;;11.73;4.90;;;4.10;99.90;;;;;;5093000;28;20872;-66
2022/04/19 05:05:26;;;;;;;7.43;5.90;;;4.10;99.90;;;;;;5093029;28;20189;-64
2022/04/19 05:07:52;;;;;;;10.50;5.70;;;4.20;99.90;;;;;;5093153;28;20218;-64
2022/04/19 05:10:17;;;;;;;6.60;5.70;;;4.20;99.90;;;;;;5092222;28;20169;-63
2022/04/19 05:12:43;;;;;;;8.37;4.90;;;4.30;99.90;;;;;;5092867;28;20277;-64
2022/04/19 05:15:09;;;;;;;6.37;4.80;;;4.30;99.90;;;;;;5092778;28;20173;-63
2022/04/19 05:17:34;;;;;;;6.83;6.03;;;4.40;99.90;;;;;;5092537;28;20235;-64
2022/04/19 05:20:00;;;;;;;8.70;6.07;;;4.40;99.90;;;;;;5091939;28;20394;-64
2022/04/19 05:22:26;;;;;;;7.50;6.33;;;4.40;99.90;;;;;;5092836;28;20193;-67
2022/04/19 05:24:52;;;;;;;6.87;6.20;;;4.40;99.90;;;;;;5092996;28;20166;-64
2022/04/19 05:27:17;;;;;;;9.13;6.20;;;4.40;99.90;;;;;;5092834;28;20178;-65
2022/04/19 05:29:43;;;;;;;8.63;5.97;;;4.40;99.90;;;;;;5091023;28;20211;-67
2022/04/19 05:32:09;;;;;;;9.30;6.00;;;4.50;99.90;;;;;;5092794;28;20189;-66
2022/04/19 05:34:34;;;;;;;6.30;5.57;;;4.50;99.90;;;;;;5092659;28;20536;-66
2022/04/19 05:37:00;;;;;;;13.40;6.27;;;4.50;99.90;;;;;;5092206;28;20201;-66
2022/04/19 05:39:26;;;;;;;8.03;7.23;;;4.60;99.90;;;;;;5091858;28;20158;-66
2022/04/19 05:41:51;;;;;;;9.20;7.40;;;4.60;99.90;;;;;;5091367;28;20423;-65
2022/04/19 05:44:17;;;;;;;11.40;6.72;;;4.60;99.90;;;;;;5091121;28;20949;-65
2022/04/19 05:46:43;;;;;;;6.40;5.90;;;4.70;99.90;;;;;;5092662;28;20251;-66
2022/04/19 05:49:08;;;;;;;11.03;6.90;;;4.80;99.90;;;;;;5091597;28;20169;-63
2022/04/19 05:51:34;;;;;;;7.53;6.90;;;4.80;99.90;;;;;;5092614;28;20727;-65
2022/04/19 05:54:00;;;;;;;7.60;6.70;;;4.80;99.90;;;;;;5093563;28;20215;-65
2022/04/19 05:56:26;;;;;;;13.97;7.50;;;4.90;99.90;;;;;;5095723;28;20462;-66
2022/04/19 05:58:52;;;;;;;9.93;8.20;;;4.90;99.90;;;;;;5095719;28;20168;-62
2022/04/19 06:01:18;;;;;;;9.87;7.30;;;5.00;99.90;;;;;;5096262;28;20392;-65
2022/04/19 06:06:28;;;;;;;10.33;6.80;;;5.20;99.90;;;;;;5096193;28;20402;-65
2022/04/19 06:08:54;;;;;;;9.63;7.03;;;5.20;99.90;;;;;;5095415;28;20418;-64
2022/04/19 06:11:21;;;;;;;10.00;7.27;;;5.30;99.90;;;;;;5096092;28;20379;-60
2022/04/19 06:13:47;;;;;;;6.93;6.27;;;5.50;99.90;;;;;;5096074;28;20172;-65
2022/04/19 06:16:12;;;;;;;8.43;6.70;;;5.60;99.90;;;;;;5095501;28;20451;-64
2022/04/19 06:18:38;;;;;;;8.90;6.83;;;5.70;99.90;;;;;;5095146;28;20246;-61
2022/04/19 06:21:05;;;;;;;8.37;7.13;;;5.80;99.90;;;;;;5096071;28;20178;-64
2022/04/19 06:23:32;;;;;;;9.47;7.07;;;6.00;99.90;;;;;;5095836;28;20514;-65
2022/04/19 06:25:57;;;;;;;6.73;6.10;;;6.10;99.90;;;;;;5095983;28;20396;-64
2022/04/19 06:28:23;;;;;;;9.47;6.80;;;6.30;99.90;;;;;;5094421;28;20412;-64
2022/04/19 06:30:49;;;;;;;10.50;7.03;;;6.50;1.00;;;;;;5095141;28;20164;-64
2022/04/19 06:33:15;;;;;;;9.33;7.63;;;6.70;1.00;;;;;;5095417;28;20427;-63
2022/04/19 06:35:41;;;;;;;9.50;6.50;;;6.90;1.00;;;;;;5094898;28;20198;-65
2022/04/19 06:38:07;;;;;;;8.13;5.83;;;7.10;1.00;;;;;;5095502;28;20216;-64
2022/04/19 06:40:33;;;;;;;7.30;6.10;;;7.20;1.00;;;;;;5094808;28;20396;-64
2022/04/19 06:42:59;;;;;;;8.93;5.97;;;7.30;1.00;;;;;;5094587;28;20488;-64
2022/04/19 06:45:24;;;;;;;7.33;6.40;;;7.40;1.00;;;;;;5095494;28;20170;-66
2022/04/19 06:47:58;;;;;;;7.30;5.80;;;7.60;1.00;;;;;;5095371;28;20649;-67
2022/04/19 06:50:24;;;;;;;6.83;5.70;;;7.90;1.00;;;;;;5094540;28;20619;-66
2022/04/19 06:52:51;;;;;;;7.93;4.67;;;8.00;1.00;;;;;;5093911;28;20461;-68
2022/04/19 06:55:20;;;;;;;6.87;5.67;;;8.10;1.00;;;;;;5095250;28;20188;-67
2022/04/19 06:57:49;;;;;;;5.40;4.90;;;8.10;1.00;;;;;;5093963;28;20410;-65
2022/04/19 07:00:16;;;;;;;6.57;5.90;;;8.10;99.90;;;;;;5094490;28;20405;-66
2022/04/19 07:02:44;;;;;;;5.13;4.63;;;8.30;99.90;;;;;;5095177;28;20427;-64
2022/04/19 07:05:10;;;;;;;6.00;5.40;;;8.40;99.90;;;;;;5094707;28;20447;-67
2022/04/19 07:07:40;;;;;;;6.53;4.87;;;8.50;99.90;;;;;;5095172;28;20913;-66
2022/04/19 07:10:07;;;;;;;5.80;4.97;;;8.60;99.90;;;;;;5094143;28;20419;-67
2022/04/19 07:12:32;;;;;;;7.30;5.07;;;8.70;99.90;;;;;;5094359;28;20418;-66
2022/04/19 07:14:58;;;;;;;5.73;4.97;;;8.80;99.90;;;;;;5093795;28;20502;-68
2022/04/19 07:17:23;;;;;;;7.90;4.90;;;8.90;99.90;;;;;;5094984;28;20170;-65
2022/04/19 07:28:02;;;;;;;7.33;6.30;;;9.30;99.90;;;;;;5094629;28;20397;-66
2022/04/19 07:30:28;;;;;;;8.00;6.10;;;9.40;99.90;;;;;;5093244;28;20399;-67
2022/04/19 07:32:55;;;;;;;7.03;5.80;;;9.50;99.90;;;;;;5094716;28;20426;-64
2022/04/19 07:35:21;;;;;;;8.40;6.53;;;9.60;99.90;;;;;;5094521;28;20425;-66
2022/04/19 07:37:46;;;;;;;8.00;6.70;;;9.80;99.90;;;;;;5094491;28;20400;-67
2022/04/19 07:40:12;;;;;;;8.07;6.77;;;10.00;99.90;;;;;;5093512;28;20184;-64
2022/04/19 07:42:38;;;;;;;10.00;6.50;;;10.20;99.90;;;;;;5094374;28;20182;-67
2022/04/19 07:45:04;;;;;;;7.60;6.33;;;10.40;99.90;;;;;;5094472;28;20814;-64
2022/04/19 07:47:32;;;;;;;12.80;5.77;;;10.50;99.90;;;;;;5093754;28;20172;-66
2022/04/19 07:49:58;;;;;;;11.30;6.23;;;10.70;99.90;;;;;;5093315;28;20949;-64
2022/04/19 07:52:24;;;;;;;8.40;5.87;;;10.80;99.90;;;;;;5094079;28;20489;-66
2022/04/19 07:54:50;;;;;;;11.33;7.00;;;10.70;99.90;;;;;;5094189;28;20166;-64
2022/04/19 07:57:20;;;;;;;11.70;6.90;;;10.80;99.90;;;;;;5093726;28;20528;-66
2022/04/19 07:59:46;;;;;;;13.20;7.43;;;10.80;99.90;;;;;;5091923;28;20498;-64
2022/04/19 08:02:12;;;;;;;11.30;6.37;;;10.90;99.90;;;;;;5093805;28;20412;-66
2022/04/19 08:04:37;;;;;;;11.63;7.07;;;11.00;99.90;;;;;;5093435;28;20903;-66
2022/04/19 08:07:03;;;;;;;14.93;7.00;;;11.10;99.90;;;;;;5093984;28;20204;-67
2022/04/19 08:09:29;;;;;;;10.03;6.30;;;11.30;99.90;;;;;;5093170;28;20173;-67
2022/04/19 08:11:54;;;;;;;10.93;5.97;;;11.40;99.90;;;;;;5092700;28;20193;-67
2022/04/19 08:14:20;;;;;;;8.30;5.40;;;11.60;99.90;;;;;;5093541;28;20242;-67
2022/04/19 08:16:46;;;;;;;11.37;6.50;;;11.70;99.90;;;;;;5091676;28;20196;-64
2022/04/19 08:19:11;;;;;;;13.03;7.20;;;11.80;99.90;;;;;;5091636;28;20180;-64
2022/04/19 08:21:37;;;;;;;10.33;6.50;;;11.70;99.90;;;;;;5093504;28;20192;-66
2022/04/19 08:24:03;;;;;;;17.97;7.60;;;11.70;99.90;;;;;;5093264;28;20164;-67
2022/04/19 08:26:29;;;;;;;7.70;6.20;;;11.60;99.90;;;;;;5093506;28;20463;-67
2022/04/19 08:28:55;;;;;;;9.33;6.17;;;11.60;99.90;;;;;;5092780;28;20161;-68
2022/04/19 08:31:20;;;;;;;16.50;6.80;;;11.60;99.90;;;;;;5093646;28;20399;-64
2022/04/19 08:33:46;;;;;;;13.93;6.80;;;11.60;99.90;;;;;;5093407;28;20165;-67
2022/04/19 08:36:12;;;;;;;10.30;6.10;;;11.90;99.90;;;;;;5093489;28;20225;-64
2022/04/19 08:38:37;;;;;;;13.93;8.07;;;12.20;99.90;;;;;;5092523;28;20162;-64
2022/04/19 08:41:04;;;;;;;16.30;6.50;;;12.50;99.90;;;;;;5093264;28;20239;-67
2022/04/19 08:43:30;;;;;;;15.80;7.00;;;12.70;99.90;;;;;;5092820;28;20266;-67
2022/04/19 08:45:56;;;;;;;11.67;7.20;;;12.90;99.90;;;;;;5092004;28;20409;-65
2022/04/19 08:48:25;;;;;;;16.83;7.97;;;13.10;99.90;;;;;;5093050;28;20174;-68
2022/04/19 08:50:55;;;;;;;15.10;7.27;;;13.20;99.90;;;;;;5092586;28;20927;-65
2022/04/19 08:58:57;;;;;;;11.37;6.20;;;13.60;99.90;;;;;;5092210;28;20438;-68
2022/04/19 09:01:23;;;;;;;16.70;8.20;;;13.90;99.90;;;;;;5091069;28;20404;-64
2022/04/19 09:03:50;;;;;;;10.73;6.50;;;14.10;99.90;;;;;;5093140;28;20880;-67
2022/04/19 09:06:16;;;;;;;15.80;6.80;;;14.40;99.90;;;;;;5092981;28;20177;-65
2022/04/19 09:09:09;;;;;;;9.53;6.27;;;14.70;99.90;;;;;;5092182;28;20869;-68
2022/04/19 09:11:35;;;;;;;13.07;6.63;;;14.70;99.90;;;;;;5092977;28;20423;-68
2022/04/19 09:14:05;;;;;;;12.80;8.67;;;14.50;99.90;;;;;;5093311;28;20411;-67
2022/04/19 09:16:51;;;;;;;15.27;6.57;;;14.50;99.90;;;;;;5092886;28;20208;-66
2022/04/19 09:19:30;;;;;;;14.17;7.83;;;14.80;99.90;;;;;;5092011;28;20410;-67
2022/04/19 09:21:57;;;;;;;9.00;6.30;;;15.00;99.90;;;;;;5092277;28;20471;-65
2022/04/19 09:24:25;;;;;;;10.70;6.30;;;14.90;99.90;;;;;;5092985;28;20890;-65
2022/04/19 09:26:51;;;;;;;11.40;6.47;;;14.90;99.90;;;;;;5092901;28;20396;-67
2022/04/19 09:29:20;;;;;;;13.10;7.97;;;15.10;99.90;;;;;;5095198;28;20381;-64
2022/04/19 09:31:46;;;;;;;11.90;6.93;;;15.60;99.90;;;;;;5096826;28;20613;-67
2022/04/19 09:34:23;;;;;;;10.83;6.13;;;15.90;99.90;;;;;;5096911;28;20427;-66
2022/04/19 09:36:53;;;;;;;12.97;7.70;;;16.10;99.90;;;;;;5096868;28;20451;-64
2022/04/19 09:39:27;;;;;;;11.50;7.30;;;16.30;99.90;;;;;;5094007;28;20381;-64
2022/04/19 09:42:09;;;;;;;12.00;6.47;;;16.70;99.90;;;;;;5096741;28;20949;-67
2022/04/19 09:44:42;;;;;;;11.67;7.70;;;17.10;99.90;;;;;;5096728;28;20407;-66
2022/04/19 09:47:10;;;;;;;10.70;6.90;;;17.50;99.90;;;;;;5095267;28;20418;-68
2022/04/19 09:49:49;;;;;;;9.87;6.47;;;17.70;99.90;;;;;;5094450;28;20451;-66
2022/04/19 09:52:38;;;;;;;10.50;6.33;;;17.40;99.90;;;;;;5096490;28;20462;-66
2022/04/19 09:55:05;;;;;;;10.70;7.53;;;17.00;99.90;;;;;;5095992;28;20403;-69
2022/04/19 09:57:32;;;;;;;9.20;6.80;;;16.50;99.90;;;;;;5096319;28;20399;-66
2022/04/19 09:59:59;;;;;;;9.90;6.50;;;16.40;99.90;;;;;;5094262;28;20901;-64
2022/04/19 10:08:13;;;;;;;10.90;6.20;;;17.90;99.90;;;;;;5096294;28;20920;-64
2022/04/19 10:10:40;;;;;;;8.53;6.30;;;18.20;99.90;;;;;;5095359;28;20808;-67
2022/04/19 10:13:06;;;;;;;7.97;6.20;;;18.70;99.90;;;;;;5095374;28;20411;-65
2022/04/19 10:15:33;;;;;;;8.97;5.33;;;18.90;99.90;;;;;;5095055;28;20534;-65
2022/04/19 10:18:00;;;;;;;10.73;6.20;;;19.20;95.40;;;;;;5096196;28;20407;-64
2022/04/19 10:20:32;;;;;;;9.27;5.33;;;19.30;95.40;;;;;;5094971;28;20399;-69
2022/04/19 10:23:08;;;;;;;8.23;5.30;;;19.20;95.40;;;;;;5095898;28;20473;-67
2022/04/19 10:25:49;;;;;;;11.83;7.00;;;18.40;95.10;;;;;;5095870;28;20478;-69
2022/04/19 10:28:26;;;;;;;17.37;7.93;;;17.80;94.90;;;;;;5095814;28;20399;-69
2022/04/19 10:30:53;;;;;;;11.27;7.40;;;17.30;94.70;;;;;;5094865;28;20487;-68
2022/04/19 10:33:38;;;;;;;9.67;6.83;;;17.20;94.70;;;;;;5095436;28;20782;-64
2022/04/19 10:36:15;;;;;;;10.70;6.83;;;17.30;94.70;;;;;;5095748;28;20448;-68
2022/04/19 10:38:42;;;;;;;10.07;7.27;;;18.10;95.10;;;;;;5094821;28;20431;-68
2022/04/19 10:41:08;;;;;;;9.77;7.23;;;18.00;94.90;;;;;;5094811;28;20392;-68
2022/04/19 10:43:34;;;;;;;12.30;6.50;;;17.70;91.60;;;;;;5095605;28;20403;-65
2022/04/19 10:46:19;;;;;;;7.20;5.80;;;17.20;88.10;;;;;;5095612;28;20219;-65
2022/04/19 10:49:20;;;;;;;11.93;6.67;;;17.20;89.70;;;;;;5094482;28;20400;-69
2022/04/19 10:51:46;;;;;;;8.20;6.03;;;17.50;94.80;;;;;;5094692;28;20423;-64
2022/04/19 10:54:13;;;;;;;9.80;7.07;;;17.60;93.20;;;;;;5094104;28;20419;-67
2022/04/19 10:58:05;;;;;;;8.73;5.77;;;17.50;89.60;;;;;;5095346;28;20454;-64
2022/04/19 11:00:00;;;;;;;9.77;6.00;;;18.00;94.90;;;;;;5094366;28;20754;-64
2022/04/19 11:02:57;;;;;;;10.70;5.67;;;18.70;90.20;;;;;;5095190;28;20820;-68
2022/04/19 11:06:09;;;;;;;5.93;5.30;;;19.40;91.60;;;;;;5052656;28;20484;-65
2022/04/19 11:08:37;;;;;;;7.63;5.77;;;20.00;87.10;;;;;;5093882;28;20426;-69
2022/04/19 11:11:03;;;;;;;16.93;5.73;;;20.30;86.40;;;;;;5095132;28;20486;-69
2022/04/19 11:13:39;;;;;;;7.57;6.17;;;19.90;77.50;;;;;;5094915;28;20470;-69
2022/04/19 11:16:05;;;;;;;8.97;4.43;;;19.40;75.50;;;;;;5094832;28;20235;-67
2022/04/19 11:18:40;;;;;;;7.53;5.17;;;19.10;66.70;;;;;;5094149;28;20396;-71
2022/04/19 11:21:12;;;;;;;6.57;5.00;;;19.00;64.60;;;;;;5094894;28;20187;-68
2022/04/19 11:23:49;;;;;;;7.13;4.57;;;18.90;61.70;;;;;;5094316;28;20480;-68
2022/04/19 11:26:26;;;;;;;6.87;4.90;;;18.90;61.30;;;;;;5094685;28;20760;-64
2022/04/19 11:29:10;;;;;;;4.77;3.90;;;19.00;64.50;;;;;;5093753;28;20400;-68
2022/04/19 11:31:57;;;;;;;9.10;3.93;;;18.70;61.60;;;;;;5093230;28;20886;-65
2022/04/19 11:34:23;;;;;;;8.67;4.43;;;18.90;62.30;;;;;;5094475;28;20407;-68
2022/04/19 11:36:56;;;;;;;5.20;4.17;;;19.30;63.00;;;;;;5094548;28;20459;-65
2022/04/19 11:47:56;;;;;;;3.60;3.30;;;20.60;61.20;;;;;;5094567;28;20399;-65
2022/04/19 11:50:30;;;;;;;4.53;2.97;;;20.40;57.10;;;;;;5092391;28;20416;-68
2022/04/19 11:53:02;;;;;;;3.97;2.73;;;20.00;54.00;;;;;;5092928;28;20431;-69
2022/04/19 11:55:28;;;;;;;2.80;2.57;;;20.40;54.10;;;;;;5094172;28;20400;-65
2022/04/19 11:58:07;;;;;;;2.80;2.47;;;21.30;56.40;;;;;;5094018;28;20400;-69
2022/04/19 12:00:34;;;;;;;3.20;2.90;;;21.90;52.30;;;;;;5092975;28;20408;-68
2022/04/19 12:03:04;;;;;;;2.83;2.60;;;21.50;45.50;;;;;;5092722;28;20836;-66
2022/04/19 12:05:30;;;;;;;5.57;3.50;;;21.50;48.10;;;;;;5093966;28;20427;-67
2022/04/19 12:07:57;;;;;;;4.33;2.70;;;20.90;41.00;;;;;;5094004;28;20400;-65
2022/04/19 12:10:23;;;;;;;5.50;2.57;;;19.80;37.60;;;;;;5091715;28;20411;-67
2022/04/19 12:12:52;;;;;;;3.90;2.47;;;19.10;33.20;;;;;;5093876;28;20423;-67
2022/04/19 12:18:40;;;;;;;4.13;2.27;;;19.40;32.90;;;;;;5092811;28;20410;-68
2022/04/19 12:21:06;;;;;;;3.33;2.03;;;19.70;37.60;;;;;;5093645;28;20762;-66
2022/04/19 12:23:34;;;;;;;2.03;1.60;;;20.00;36.80;;;;;;5093544;28;20427;-65
2022/04/19 12:26:22;;;;;;;2.80;1.50;;;19.50;32.00;;;;;;5092513;28;20772;-70
2022/04/19 12:28:50;;;;;;;1.63;1.53;;;19.10;27.30;;;;;;5092725;28;20434;-68
2022/04/19 12:31:36;;;;;;;4.20;2.53;;;18.80;30.80;;;;;;5092203;28;20922;-67
2022/04/19 12:34:03;;;;;;;2.50;2.30;;;18.40;30.60;;;;;;5093550;28;20407;-67
2022/04/19 12:36:50;;;;;;;2.17;1.97;;;18.20;28.20;;;;;;5092835;28;20454;-67
2022/04/19 12:39:20;;;;;;;1.77;1.60;;;17.90;22.30;;;;;;5092622;28;20890;-65
2022/04/19 12:41:49;;;;;;;1.30;1.20;;;18.00;20.80;;;;;;5093286;28;20423;-67
2022/04/19 12:44:17;;;;;;;2.57;1.57;;;18.30;18.00;;;;;;5093310;28;20521;-66
2022/04/19 12:46:48;;;;;;;1.40;1.10;;;18.30;14.40;;;;;;5093265;28;20407;-65
2022/04/19 12:49:24;;;;;;;2.30;2.10;;;18.20;17.40;;;;;;5092608;28;20407;-67
2022/04/19 12:52:05;;;;;;;1.97;1.37;;;18.70;20.00;;;;;;5092603;28;20433;-67
2022/04/19 12:54:40;;;;;;;3.53;1.27;;;19.40;22.70;;;;;;5093227;28;20442;-67
2022/04/19 12:57:22;;;;;;;1.60;1.50;;;20.40;19.80;;;;;;5093099;28;20447;-68
2022/04/19 12:59:48;;;;;;;1.20;1.10;;;21.10;12.30;;;;;;5092303;28;20434;-67
2022/04/19 13:02:22;;;;;;;1.30;1.10;;;21.90;9.80;;;;;;5092787;28;20415;-63
2022/04/19 13:14:21;;;;;;;1.50;1.37;;;23.00;1.00;;;;;;5093208;28;20402;-69
2022/04/19 13:16:48;;;;;;;1.40;0.97;;;21.80;1.00;;;;;;5092845;28;20907;-67
2022/04/19 13:19:14;;;;;;;1.40;1.00;;;21.00;1.00;;;;;;5092162;28;20166;-64
2022/04/19 13:21:39;;;;;;;4.17;1.10;;;20.40;1.00;;;;;;5092881;28;20426;-64
2022/04/19 13:24:06;;;;;;;1.47;1.10;;;19.90;1.00;;;;;;5092876;28;20399;-65
2022/04/19 13:26:34;;;;;;;1.10;1.00;;;19.50;1.00;;;;;;5092973;28;20203;-64
2022/04/19 13:29:00;;;;;;;1.20;0.70;;;19.40;1.00;;;;;;5091349;28;20414;-64
2022/04/19 13:31:26;;;;;;;1.50;0.90;;;19.00;1.00;;;;;;5092746;28;20408;-64
2022/04/19 13:33:52;;;;;;;1.57;1.20;;;18.30;1.00;;;;;;5092977;28;20923;-64
2022/04/19 13:36:18;;;;;;;4.23;1.27;;;18.00;1.00;;;;;;5092788;28;20197;-64
2022/04/19 13:38:44;;;;;;;1.10;0.87;;;18.50;1.00;;;;;;5091855;28;20427;-64
2022/04/19 13:41:10;;;;;;;1.20;0.93;;;18.90;1.00;;;;;;5092860;28;20172;-64
2022/04/19 13:43:37;;;;;;;1.10;0.90;;;19.60;1.00;;;;;;5092620;28;20447;-69
2022/04/19 13:46:07;;;;;;;1.27;1.17;;;20.20;1.00;;;;;;5092141;28;20400;-65
2022/04/19 13:48:36;;;;;;;1.37;0.90;;;21.00;1.00;;;;;;5091934;28;20396;-65
2022/04/19 13:51:02;;;;;;;1.20;0.80;;;21.90;1.00;;;;;;5092686;28;20396;-64